sensor_id;sensor_type;location;lat;lon;timestamp;P1;durP1;ratioP1;P2;durP2;ratioP2
16775;SDS011;8505;49.456;8.164;2023-08-08T00:02:27;3.72;;;1.92;;
16775;SDS011;8505;49.456;8.164;2023-08-08T00:04:55;4.05;;;1.77;;
16775;SDS011;8505;49.456;8.164;2023-08-08T00:07:23;5.47;;;1.83;;
16775;SDS011;8505;49.456;8.164;2023-08-08T00:09:51;5.40;;;1.90;;
16775;SDS011;8505;49.456;8.164;2023-08-08T00:12:19;3.33;;;1.85;;
16775;SDS011;8505;49.456;8.164;2023-08-08T00:14:46;4.65;;;1.90;;
16775;SDS011;8505;49.456;8.164;2023-08-08T00:17:14;3.28;;;1.73;;
16775;SDS011;8505;49.456;8.164;2023-08-08T00:19:43;4.20;;;1.90;;
16775;SDS011;8505;49.456;8.164;2023-08-08T00:22:12;5.38;;;2.05;;
16775;SDS011;8505;49.456;8.164;2023-08-08T00:24:39;4.77;;;1.80;;
16775;SDS011;8505;49.456;8.164;2023-08-08T00:27:07;3.83;;;2.00;;
16775;SDS011;8505;49.456;8.164;2023-08-08T00:29:35;6.20;;;2.05;;
16775;SDS011;8505;49.456;8.164;2023-08-08T00:32:02;5.85;;;2.03;;
16775;SDS011;8505;49.456;8.164;2023-08-08T00:34:31;4.07;;;1.92;;
16775;SDS011;8505;49.456;8.164;2023-08-08T00:37:00;4.13;;;1.90;;
16775;SDS011;8505;49.456;8.164;2023-08-08T00:39:28;4.70;;;1.93;;
16775;SDS011;8505;49.456;8.164;2023-08-08T00:41:56;4.72;;;1.90;;
16775;SDS011;8505;49.456;8.164;2023-08-08T00:44:24;5.88;;;2.10;;
16775;SDS011;8505;49.456;8.164;2023-08-08T00:46:51;5.18;;;1.85;;
16775;SDS011;8505;49.456;8.164;2023-08-08T00:49:20;4.38;;;1.90;;
16775;SDS011;8505;49.456;8.164;2023-08-08T00:51:47;7.20;;;2.20;;
16775;SDS011;8505;49.456;8.164;2023-08-08T00:54:16;4.15;;;2.20;;
16775;SDS011;8505;49.456;8.164;2023-08-08T00:56:53;4.28;;;2.30;;
16775;SDS011;8505;49.456;8.164;2023-08-08T00:59:21;7.60;;;2.40;;
16775;SDS011;8505;49.456;8.164;2023-08-08T01:01:51;5.53;;;2.25;;
16775;SDS011;8505;49.456;8.164;2023-08-08T01:04:18;4.28;;;2.10;;
16775;SDS011;8505;49.456;8.164;2023-08-08T01:06:48;5.47;;;2.20;;
16775;SDS011;8505;49.456;8.164;2023-08-08T01:09:27;5.07;;;2.20;;
16775;SDS011;8505;49.456;8.164;2023-08-08T01:12:00;4.17;;;2.20;;
16775;SDS011;8505;49.456;8.164;2023-08-08T01:14:29;4.73;;;2.30;;
16775;SDS011;8505;49.456;8.164;2023-08-08T01:16:59;6.07;;;2.30;;
16775;SDS011;8505;49.456;8.164;2023-08-08T01:19:28;5.72;;;2.30;;
16775;SDS011;8505;49.456;8.164;2023-08-08T01:22:01;5.43;;;2.10;;
16775;SDS011;8505;49.456;8.164;2023-08-08T01:24:31;3.85;;;2.20;;
16775;SDS011;8505;49.456;8.164;2023-08-08T01:27:03;4.85;;;2.20;;
16775;SDS011;8505;49.456;8.164;2023-08-08T01:29:32;5.60;;;2.30;;
16775;SDS011;8505;49.456;8.164;2023-08-08T01:32:00;4.90;;;2.38;;
16775;SDS011;8505;49.456;8.164;2023-08-08T01:34:28;7.10;;;2.30;;
16775;SDS011;8505;49.456;8.164;2023-08-08T01:36:56;4.37;;;2.30;;
16775;SDS011;8505;49.456;8.164;2023-08-08T01:39:32;4.97;;;2.35;;
16775;SDS011;8505;49.456;8.164;2023-08-08T01:42:01;6.03;;;2.50;;
16775;SDS011;8505;49.456;8.164;2023-08-08T01:44:29;5.20;;;2.30;;
16775;SDS011;8505;49.456;8.164;2023-08-08T01:46:58;4.43;;;2.25;;
16775;SDS011;8505;49.456;8.164;2023-08-08T01:49:26;3.67;;;2.20;;
16775;SDS011;8505;49.456;8.164;2023-08-08T01:51:54;5.40;;;2.33;;
16775;SDS011;8505;49.456;8.164;2023-08-08T01:54:22;5.13;;;2.30;;
16775;SDS011;8505;49.456;8.164;2023-08-08T01:56:51;4.57;;;2.20;;
16775;SDS011;8505;49.456;8.164;2023-08-08T01:59:19;8.32;;;2.63;;
16775;SDS011;8505;49.456;8.164;2023-08-08T02:01:47;4.78;;;2.13;;
16775;SDS011;8505;49.456;8.164;2023-08-08T02:04:15;5.28;;;2.10;;
16775;SDS011;8505;49.456;8.164;2023-08-08T02:06:42;4.82;;;2.33;;
16775;SDS011;8505;49.456;8.164;2023-08-08T02:09:10;6.13;;;2.30;;
16775;SDS011;8505;49.456;8.164;2023-08-08T02:11:41;3.92;;;2.25;;
16775;SDS011;8505;49.456;8.164;2023-08-08T02:14:10;3.75;;;2.13;;
16775;SDS011;8505;49.456;8.164;2023-08-08T02:16:38;6.88;;;2.40;;
16775;SDS011;8505;49.456;8.164;2023-08-08T02:19:08;6.13;;;2.17;;
16775;SDS011;8505;49.456;8.164;2023-08-08T02:21:36;4.53;;;1.90;;
16775;SDS011;8505;49.456;8.164;2023-08-08T02:24:04;4.85;;;2.22;;
16775;SDS011;8505;49.456;8.164;2023-08-08T02:26:32;7.10;;;2.20;;
16775;SDS011;8505;49.456;8.164;2023-08-08T02:28:59;4.50;;;2.13;;
16775;SDS011;8505;49.456;8.164;2023-08-08T02:31:28;6.30;;;2.45;;
16775;SDS011;8505;49.456;8.164;2023-08-08T02:33:56;6.28;;;2.10;;
16775;SDS011;8505;49.456;8.164;2023-08-08T02:36:24;4.68;;;2.10;;
16775;SDS011;8505;49.456;8.164;2023-08-08T02:38:54;3.40;;;1.77;;
16775;SDS011;8505;49.456;8.164;2023-08-08T02:41:22;5.32;;;2.05;;
16775;SDS011;8505;49.456;8.164;2023-08-08T02:43:50;3.97;;;1.90;;
16775;SDS011;8505;49.456;8.164;2023-08-08T02:46:18;5.10;;;1.80;;
16775;SDS011;8505;49.456;8.164;2023-08-08T02:48:47;4.35;;;1.92;;
16775;SDS011;8505;49.456;8.164;2023-08-08T02:51:14;4.75;;;1.60;;
16775;SDS011;8505;49.456;8.164;2023-08-08T02:53:42;3.90;;;1.80;;
16775;SDS011;8505;49.456;8.164;2023-08-08T02:56:10;2.80;;;1.90;;
16775;SDS011;8505;49.456;8.164;2023-08-08T02:58:38;3.95;;;1.65;;
16775;SDS011;8505;49.456;8.164;2023-08-08T03:01:05;4.90;;;1.80;;
16775;SDS011;8505;49.456;8.164;2023-08-08T03:03:34;5.33;;;2.10;;
16775;SDS011;8505;49.456;8.164;2023-08-08T03:06:04;5.38;;;2.10;;
16775;SDS011;8505;49.456;8.164;2023-08-08T03:08:32;4.82;;;1.75;;
16775;SDS011;8505;49.456;8.164;2023-08-08T03:11:00;4.15;;;1.70;;
16775;SDS011;8505;49.456;8.164;2023-08-08T03:13:28;4.50;;;2.07;;
16775;SDS011;8505;49.456;8.164;2023-08-08T03:15:56;5.18;;;1.95;;
16775;SDS011;8505;49.456;8.164;2023-08-08T03:18:24;5.13;;;2.20;;
16775;SDS011;8505;49.456;8.164;2023-08-08T03:20:52;4.65;;;2.13;;
16775;SDS011;8505;49.456;8.164;2023-08-08T03:23:21;4.85;;;2.10;;
16775;SDS011;8505;49.456;8.164;2023-08-08T03:25:49;5.38;;;2.00;;
16775;SDS011;8505;49.456;8.164;2023-08-08T03:28:17;4.07;;;2.00;;
16775;SDS011;8505;49.456;8.164;2023-08-08T03:30:45;4.75;;;2.00;;
16775;SDS011;8505;49.456;8.164;2023-08-08T03:33:13;4.45;;;2.20;;
16775;SDS011;8505;49.456;8.164;2023-08-08T03:35:40;4.47;;;2.03;;
16775;SDS011;8505;49.456;8.164;2023-08-08T03:38:09;4.57;;;1.90;;
16775;SDS011;8505;49.456;8.164;2023-08-08T03:40:38;6.78;;;2.28;;
16775;SDS011;8505;49.456;8.164;2023-08-08T03:43:06;6.78;;;2.40;;
16775;SDS011;8505;49.456;8.164;2023-08-08T03:45:34;4.65;;;2.05;;
16775;SDS011;8505;49.456;8.164;2023-08-08T03:48:02;4.78;;;2.13;;
16775;SDS011;8505;49.456;8.164;2023-08-08T03:50:30;4.47;;;2.10;;
16775;SDS011;8505;49.456;8.164;2023-08-08T03:52:57;3.88;;;2.20;;
16775;SDS011;8505;49.456;8.164;2023-08-08T03:55:25;6.43;;;2.50;;
16775;SDS011;8505;49.456;8.164;2023-08-08T03:57:54;4.80;;;2.20;;
16775;SDS011;8505;49.456;8.164;2023-08-08T04:00:22;5.28;;;2.10;;
16775;SDS011;8505;49.456;8.164;2023-08-08T04:02:50;5.50;;;2.20;;
16775;SDS011;8505;49.456;8.164;2023-08-08T04:05:18;4.50;;;2.30;;
16775;SDS011;8505;49.456;8.164;2023-08-08T04:07:46;7.03;;;2.40;;
16775;SDS011;8505;49.456;8.164;2023-08-08T04:10:13;6.33;;;2.20;;
16775;SDS011;8505;49.456;8.164;2023-08-08T04:12:42;5.47;;;2.07;;
16775;SDS011;8505;49.456;8.164;2023-08-08T04:15:11;6.20;;;2.20;;
16775;SDS011;8505;49.456;8.164;2023-08-08T04:17:38;5.78;;;2.22;;
16775;SDS011;8505;49.456;8.164;2023-08-08T04:20:07;5.18;;;2.30;;
16775;SDS011;8505;49.456;8.164;2023-08-08T04:22:36;4.05;;;2.40;;
16775;SDS011;8505;49.456;8.164;2023-08-08T04:25:04;5.63;;;1.95;;
16775;SDS011;8505;49.456;8.164;2023-08-08T04:27:33;5.03;;;2.22;;
16775;SDS011;8505;49.456;8.164;2023-08-08T04:30:01;5.60;;;2.05;;
16775;SDS011;8505;49.456;8.164;2023-08-08T04:32:30;4.80;;;2.10;;
16775;SDS011;8505;49.456;8.164;2023-08-08T04:34:58;4.75;;;2.10;;
16775;SDS011;8505;49.456;8.164;2023-08-08T04:37:26;7.03;;;1.93;;
16775;SDS011;8505;49.456;8.164;2023-08-08T04:39:53;6.05;;;1.98;;
16775;SDS011;8505;49.456;8.164;2023-08-08T04:42:21;4.85;;;1.90;;
16775;SDS011;8505;49.456;8.164;2023-08-08T04:44:49;4.13;;;1.60;;
16775;SDS011;8505;49.456;8.164;2023-08-08T04:47:17;5.95;;;1.90;;
16775;SDS011;8505;49.456;8.164;2023-08-08T04:49:46;3.55;;;1.50;;
16775;SDS011;8505;49.456;8.164;2023-08-08T04:52:13;4.40;;;1.70;;
16775;SDS011;8505;49.456;8.164;2023-08-08T04:54:41;4.35;;;1.65;;
16775;SDS011;8505;49.456;8.164;2023-08-08T04:57:10;3.10;;;1.70;;
16775;SDS011;8505;49.456;8.164;2023-08-08T04:59:37;5.03;;;1.70;;
16775;SDS011;8505;49.456;8.164;2023-08-08T05:02:05;6.05;;;1.90;;
16775;SDS011;8505;49.456;8.164;2023-08-08T05:04:33;3.20;;;1.70;;
16775;SDS011;8505;49.456;8.164;2023-08-08T05:07:02;4.10;;;1.92;;
16775;SDS011;8505;49.456;8.164;2023-08-08T05:09:30;4.50;;;1.85;;
16775;SDS011;8505;49.456;8.164;2023-08-08T05:11:58;3.00;;;1.50;;
16775;SDS011;8505;49.456;8.164;2023-08-08T05:14:26;2.78;;;1.40;;
16775;SDS011;8505;49.456;8.164;2023-08-08T05:16:54;4.35;;;1.55;;
16775;SDS011;8505;49.456;8.164;2023-08-08T05:19:22;4.97;;;1.50;;
16775;SDS011;8505;49.456;8.164;2023-08-08T05:21:50;4.55;;;1.60;;
16775;SDS011;8505;49.456;8.164;2023-08-08T05:24:20;3.30;;;1.50;;
16775;SDS011;8505;49.456;8.164;2023-08-08T05:26:47;5.60;;;1.50;;
16775;SDS011;8505;49.456;8.164;2023-08-08T05:29:15;4.93;;;1.42;;
16775;SDS011;8505;49.456;8.164;2023-08-08T05:31:43;5.70;;;1.60;;
16775;SDS011;8505;49.456;8.164;2023-08-08T05:34:10;5.72;;;1.60;;
16775;SDS011;8505;49.456;8.164;2023-08-08T05:36:38;4.80;;;1.40;;
16775;SDS011;8505;49.456;8.164;2023-08-08T05:39:07;4.90;;;1.40;;
16775;SDS011;8505;49.456;8.164;2023-08-08T05:41:37;3.45;;;1.40;;
16775;SDS011;8505;49.456;8.164;2023-08-08T05:44:05;3.50;;;1.30;;
16775;SDS011;8505;49.456;8.164;2023-08-08T05:46:32;6.80;;;1.50;;
16775;SDS011;8505;49.456;8.164;2023-08-08T05:49:00;3.50;;;1.42;;
16775;SDS011;8505;49.456;8.164;2023-08-08T05:51:28;4.13;;;1.40;;
16775;SDS011;8505;49.456;8.164;2023-08-08T05:53:56;3.25;;;1.40;;
16775;SDS011;8505;49.456;8.164;2023-08-08T05:56:27;2.50;;;1.33;;
16775;SDS011;8505;49.456;8.164;2023-08-08T05:59:03;3.50;;;1.35;;
16775;SDS011;8505;49.456;8.164;2023-08-08T06:01:31;5.13;;;1.30;;
16775;SDS011;8505;49.456;8.164;2023-08-08T06:03:58;4.03;;;1.30;;
16775;SDS011;8505;49.456;8.164;2023-08-08T06:06:26;2.05;;;1.20;;
16775;SDS011;8505;49.456;8.164;2023-08-08T06:08:54;3.85;;;1.40;;
16775;SDS011;8505;49.456;8.164;2023-08-08T06:11:22;2.30;;;1.35;;
16775;SDS011;8505;49.456;8.164;2023-08-08T06:13:50;3.53;;;1.50;;
16775;SDS011;8505;49.456;8.164;2023-08-08T06:16:19;3.83;;;1.35;;
16775;SDS011;8505;49.456;8.164;2023-08-08T06:18:47;2.13;;;1.13;;
16775;SDS011;8505;49.456;8.164;2023-08-08T06:21:15;3.50;;;1.10;;
16775;SDS011;8505;49.456;8.164;2023-08-08T06:23:42;3.45;;;1.27;;
16775;SDS011;8505;49.456;8.164;2023-08-08T06:26:10;3.50;;;1.30;;
16775;SDS011;8505;49.456;8.164;2023-08-08T06:28:38;3.88;;;1.30;;
16775;SDS011;8505;49.456;8.164;2023-08-08T06:31:05;5.25;;;1.25;;
16775;SDS011;8505;49.456;8.164;2023-08-08T06:33:35;3.47;;;1.10;;
16775;SDS011;8505;49.456;8.164;2023-08-08T06:36:03;2.13;;;1.10;;
16775;SDS011;8505;49.456;8.164;2023-08-08T06:38:31;3.03;;;1.08;;
16775;SDS011;8505;49.456;8.164;2023-08-08T06:41:00;3.47;;;1.30;;
16775;SDS011;8505;49.456;8.164;2023-08-08T06:43:29;2.97;;;1.13;;
16775;SDS011;8505;49.456;8.164;2023-08-08T06:45:57;2.47;;;1.20;;
16775;SDS011;8505;49.456;8.164;2023-08-08T06:48:25;4.97;;;1.30;;
16775;SDS011;8505;49.456;8.164;2023-08-08T06:50:54;2.80;;;1.10;;
16775;SDS011;8505;49.456;8.164;2023-08-08T06:53:22;3.15;;;1.10;;
16775;SDS011;8505;49.456;8.164;2023-08-08T06:55:50;3.35;;;1.10;;
16775;SDS011;8505;49.456;8.164;2023-08-08T06:58:18;1.70;;;0.95;;
16775;SDS011;8505;49.456;8.164;2023-08-08T07:00:45;4.57;;;1.33;;
16775;SDS011;8505;49.456;8.164;2023-08-08T07:03:13;2.28;;;1.00;;
16775;SDS011;8505;49.456;8.164;2023-08-08T07:05:41;3.33;;;1.17;;
16775;SDS011;8505;49.456;8.164;2023-08-08T07:08:10;3.00;;;1.70;;
16775;SDS011;8505;49.456;8.164;2023-08-08T07:10:38;4.43;;;1.27;;
16775;SDS011;8505;49.456;8.164;2023-08-08T07:13:06;3.95;;;1.30;;
16775;SDS011;8505;49.456;8.164;2023-08-08T07:15:33;2.30;;;1.10;;
16775;SDS011;8505;49.456;8.164;2023-08-08T07:18:01;3.95;;;1.25;;
16775;SDS011;8505;49.456;8.164;2023-08-08T07:20:29;3.55;;;0.80;;
16775;SDS011;8505;49.456;8.164;2023-08-08T07:22:57;2.88;;;0.85;;
16775;SDS011;8505;49.456;8.164;2023-08-08T07:25:27;2.70;;;1.00;;
16775;SDS011;8505;49.456;8.164;2023-08-08T07:27:56;3.05;;;1.02;;
16775;SDS011;8505;49.456;8.164;2023-08-08T07:30:24;1.90;;;1.00;;
16775;SDS011;8505;49.456;8.164;2023-08-08T07:32:52;2.63;;;1.10;;
16775;SDS011;8505;49.456;8.164;2023-08-08T07:35:23;2.63;;;1.00;;
16775;SDS011;8505;49.456;8.164;2023-08-08T07:37:51;4.10;;;1.08;;
16775;SDS011;8505;49.456;8.164;2023-08-08T07:40:20;2.55;;;1.05;;
16775;SDS011;8505;49.456;8.164;2023-08-08T07:42:49;2.63;;;1.00;;
16775;SDS011;8505;49.456;8.164;2023-08-08T07:45:17;4.10;;;1.10;;
16775;SDS011;8505;49.456;8.164;2023-08-08T07:47:45;2.95;;;1.00;;
16775;SDS011;8505;49.456;8.164;2023-08-08T07:50:13;3.78;;;1.10;;
16775;SDS011;8505;49.456;8.164;2023-08-08T07:52:41;2.85;;;1.10;;
16775;SDS011;8505;49.456;8.164;2023-08-08T07:55:09;2.83;;;1.00;;
16775;SDS011;8505;49.456;8.164;2023-08-08T07:57:36;2.47;;;1.00;;
16775;SDS011;8505;49.456;8.164;2023-08-08T08:00:06;2.83;;;1.00;;
16775;SDS011;8505;49.456;8.164;2023-08-08T08:02:38;2.50;;;0.90;;
16775;SDS011;8505;49.456;8.164;2023-08-08T08:05:06;1.73;;;0.90;;
16775;SDS011;8505;49.456;8.164;2023-08-08T08:07:36;1.83;;;1.00;;
16775;SDS011;8505;49.456;8.164;2023-08-08T08:10:06;1.60;;;1.05;;
16775;SDS011;8505;49.456;8.164;2023-08-08T08:12:36;3.42;;;1.00;;
16775;SDS011;8505;49.456;8.164;2023-08-08T08:15:06;2.58;;;0.90;;
16775;SDS011;8505;49.456;8.164;2023-08-08T08:17:35;4.50;;;1.07;;
16775;SDS011;8505;49.456;8.164;2023-08-08T08:20:03;2.88;;;1.10;;
16775;SDS011;8505;49.456;8.164;2023-08-08T08:22:32;3.38;;;0.98;;
16775;SDS011;8505;49.456;8.164;2023-08-08T08:24:59;2.57;;;1.03;;
16775;SDS011;8505;49.456;8.164;2023-08-08T08:27:28;2.63;;;1.00;;
16775;SDS011;8505;49.456;8.164;2023-08-08T08:29:56;2.28;;;1.13;;
16775;SDS011;8505;49.456;8.164;2023-08-08T08:32:25;2.22;;;0.90;;
16775;SDS011;8505;49.456;8.164;2023-08-08T08:34:53;2.08;;;1.00;;
16775;SDS011;8505;49.456;8.164;2023-08-08T08:37:21;3.13;;;0.90;;
16775;SDS011;8505;49.456;8.164;2023-08-08T08:39:48;2.22;;;0.90;;
16775;SDS011;8505;49.456;8.164;2023-08-08T08:42:16;2.60;;;0.90;;
16775;SDS011;8505;49.456;8.164;2023-08-08T08:44:45;2.90;;;0.98;;
16775;SDS011;8505;49.456;8.164;2023-08-08T08:47:13;4.00;;;1.15;;
16775;SDS011;8505;49.456;8.164;2023-08-08T08:49:46;2.67;;;1.08;;
16775;SDS011;8505;49.456;8.164;2023-08-08T08:52:13;3.63;;;1.20;;
16775;SDS011;8505;49.456;8.164;2023-08-08T08:54:41;2.90;;;1.30;;
16775;SDS011;8505;49.456;8.164;2023-08-08T08:57:09;2.88;;;1.10;;
16775;SDS011;8505;49.456;8.164;2023-08-08T08:59:38;4.50;;;1.25;;
16775;SDS011;8505;49.456;8.164;2023-08-08T09:02:05;3.40;;;1.20;;
16775;SDS011;8505;49.456;8.164;2023-08-08T09:04:34;2.20;;;1.13;;
16775;SDS011;8505;49.456;8.164;2023-08-08T09:07:03;2.83;;;1.10;;
16775;SDS011;8505;49.456;8.164;2023-08-08T09:09:33;3.83;;;1.08;;
16775;SDS011;8505;49.456;8.164;2023-08-08T09:12:05;3.45;;;1.15;;
16775;SDS011;8505;49.456;8.164;2023-08-08T09:14:33;4.05;;;1.30;;
16775;SDS011;8505;49.456;8.164;2023-08-08T09:17:01;3.53;;;1.10;;
16775;SDS011;8505;49.456;8.164;2023-08-08T09:19:29;2.30;;;1.02;;
16775;SDS011;8505;49.456;8.164;2023-08-08T09:21:56;3.00;;;1.20;;
16775;SDS011;8505;49.456;8.164;2023-08-08T09:24:26;2.57;;;1.00;;
16775;SDS011;8505;49.456;8.164;2023-08-08T09:26:54;2.90;;;1.30;;
16775;SDS011;8505;49.456;8.164;2023-08-08T09:29:22;2.88;;;1.25;;
16775;SDS011;8505;49.456;8.164;2023-08-08T09:31:50;2.25;;;1.05;;
16775;SDS011;8505;49.456;8.164;2023-08-08T09:34:17;2.38;;;1.10;;
16775;SDS011;8505;49.456;8.164;2023-08-08T09:36:45;2.42;;;1.13;;
16775;SDS011;8505;49.456;8.164;2023-08-08T09:39:14;2.80;;;1.10;;
16775;SDS011;8505;49.456;8.164;2023-08-08T09:41:45;2.80;;;1.05;;
16775;SDS011;8505;49.456;8.164;2023-08-08T09:44:13;3.50;;;1.40;;
16775;SDS011;8505;49.456;8.164;2023-08-08T09:46:41;2.88;;;1.20;;
16775;SDS011;8505;49.456;8.164;2023-08-08T09:49:09;3.22;;;1.25;;
16775;SDS011;8505;49.456;8.164;2023-08-08T09:51:37;2.90;;;1.30;;
16775;SDS011;8505;49.456;8.164;2023-08-08T09:54:06;3.65;;;1.10;;
16775;SDS011;8505;49.456;8.164;2023-08-08T09:56:34;2.60;;;1.10;;
16775;SDS011;8505;49.456;8.164;2023-08-08T09:59:03;2.17;;;1.00;;
16775;SDS011;8505;49.456;8.164;2023-08-08T10:01:33;3.92;;;1.20;;
16775;SDS011;8505;49.456;8.164;2023-08-08T10:04:02;2.88;;;1.10;;
16775;SDS011;8505;49.456;8.164;2023-08-08T10:06:30;2.60;;;1.07;;
16775;SDS011;8505;49.456;8.164;2023-08-08T10:08:59;2.70;;;1.10;;
16775;SDS011;8505;49.456;8.164;2023-08-08T10:11:29;3.07;;;1.20;;
16775;SDS011;8505;49.456;8.164;2023-08-08T10:14:00;2.20;;;1.10;;
16775;SDS011;8505;49.456;8.164;2023-08-08T10:16:32;2.75;;;1.10;;
16775;SDS011;8505;49.456;8.164;2023-08-08T10:19:01;3.03;;;1.13;;
16775;SDS011;8505;49.456;8.164;2023-08-08T10:21:33;4.07;;;1.17;;
16775;SDS011;8505;49.456;8.164;2023-08-08T10:24:05;3.22;;;1.10;;
16775;SDS011;8505;49.456;8.164;2023-08-08T10:29:24;2.97;;;1.40;;
16775;SDS011;8505;49.456;8.164;2023-08-08T10:31:58;2.70;;;1.00;;
16775;SDS011;8505;49.456;8.164;2023-08-08T10:34:36;3.90;;;1.27;;
16775;SDS011;8505;49.456;8.164;2023-08-08T10:37:05;5.25;;;1.38;;
16775;SDS011;8505;49.456;8.164;2023-08-08T10:39:36;2.65;;;1.10;;
16775;SDS011;8505;49.456;8.164;2023-08-08T10:42:04;2.95;;;1.15;;
16775;SDS011;8505;49.456;8.164;2023-08-08T10:44:32;3.05;;;1.20;;
16775;SDS011;8505;49.456;8.164;2023-08-08T10:47:10;2.85;;;1.25;;
16775;SDS011;8505;49.456;8.164;2023-08-08T10:49:38;3.13;;;1.27;;
16775;SDS011;8505;49.456;8.164;2023-08-08T10:52:13;2.93;;;1.20;;
16775;SDS011;8505;49.456;8.164;2023-08-08T10:54:51;2.42;;;1.23;;
16775;SDS011;8505;49.456;8.164;2023-08-08T10:57:23;3.30;;;1.27;;
16775;SDS011;8505;49.456;8.164;2023-08-08T10:59:52;3.17;;;1.15;;
16775;SDS011;8505;49.456;8.164;2023-08-08T11:02:22;2.05;;;1.17;;
16775;SDS011;8505;49.456;8.164;2023-08-08T11:04:50;2.72;;;1.20;;
16775;SDS011;8505;49.456;8.164;2023-08-08T11:07:18;3.10;;;1.20;;
16775;SDS011;8505;49.456;8.164;2023-08-08T11:09:46;3.20;;;1.30;;
16775;SDS011;8505;49.456;8.164;2023-08-08T11:12:14;2.42;;;1.20;;
16775;SDS011;8505;49.456;8.164;2023-08-08T11:14:42;2.30;;;1.05;;
16775;SDS011;8505;49.456;8.164;2023-08-08T11:17:10;3.60;;;1.10;;
16775;SDS011;8505;49.456;8.164;2023-08-08T11:19:40;2.47;;;1.10;;
16775;SDS011;8505;49.456;8.164;2023-08-08T11:22:09;3.47;;;1.15;;
16775;SDS011;8505;49.456;8.164;2023-08-08T11:24:38;2.78;;;1.20;;
16775;SDS011;8505;49.456;8.164;2023-08-08T11:27:05;3.00;;;1.20;;
16775;SDS011;8505;49.456;8.164;2023-08-08T11:29:33;2.95;;;1.20;;
16775;SDS011;8505;49.456;8.164;2023-08-08T11:32:01;2.88;;;1.17;;
16775;SDS011;8505;49.456;8.164;2023-08-08T11:34:31;2.92;;;1.20;;
16775;SDS011;8505;49.456;8.164;2023-08-08T11:37:00;2.95;;;1.25;;
16775;SDS011;8505;49.456;8.164;2023-08-08T11:39:29;3.13;;;1.13;;
16775;SDS011;8505;49.456;8.164;2023-08-08T11:41:57;2.03;;;1.03;;
16775;SDS011;8505;49.456;8.164;2023-08-08T11:44:25;2.03;;;1.20;;
16775;SDS011;8505;49.456;8.164;2023-08-08T11:46:53;2.45;;;0.98;;
16775;SDS011;8505;49.456;8.164;2023-08-08T11:49:21;3.17;;;1.15;;
16775;SDS011;8505;49.456;8.164;2023-08-08T11:51:49;1.40;;;0.90;;
16775;SDS011;8505;49.456;8.164;2023-08-08T11:54:18;2.20;;;1.03;;
16775;SDS011;8505;49.456;8.164;2023-08-08T11:56:46;1.90;;;1.17;;
16775;SDS011;8505;49.456;8.164;2023-08-08T11:59:14;2.10;;;1.02;;
16775;SDS011;8505;49.456;8.164;2023-08-08T12:01:42;2.88;;;1.15;;
16775;SDS011;8505;49.456;8.164;2023-08-08T12:04:10;2.87;;;1.20;;
16775;SDS011;8505;49.456;8.164;2023-08-08T12:06:38;3.85;;;0.80;;
16775;SDS011;8505;49.456;8.164;2023-08-08T12:09:10;2.95;;;1.10;;
16775;SDS011;8505;49.456;8.164;2023-08-08T12:11:40;2.95;;;1.20;;
16775;SDS011;8505;49.456;8.164;2023-08-08T12:14:08;2.33;;;0.95;;
16775;SDS011;8505;49.456;8.164;2023-08-08T12:16:37;1.77;;;0.88;;
16775;SDS011;8505;49.456;8.164;2023-08-08T12:19:07;2.15;;;1.05;;
16775;SDS011;8505;49.456;8.164;2023-08-08T12:21:37;3.40;;;1.25;;
16775;SDS011;8505;49.456;8.164;2023-08-08T12:24:05;2.50;;;1.20;;
16775;SDS011;8505;49.456;8.164;2023-08-08T12:26:34;2.97;;;1.13;;
16775;SDS011;8505;49.456;8.164;2023-08-08T12:29:03;2.07;;;1.00;;
16775;SDS011;8505;49.456;8.164;2023-08-08T12:31:31;2.92;;;1.20;;
16775;SDS011;8505;49.456;8.164;2023-08-08T12:33:59;2.47;;;1.20;;
16775;SDS011;8505;49.456;8.164;2023-08-08T12:36:27;1.77;;;0.90;;
16775;SDS011;8505;49.456;8.164;2023-08-08T12:38:54;3.20;;;1.02;;
16775;SDS011;8505;49.456;8.164;2023-08-08T12:41:22;3.05;;;1.10;;
16775;SDS011;8505;49.456;8.164;2023-08-08T12:43:51;2.00;;;1.00;;
16775;SDS011;8505;49.456;8.164;2023-08-08T12:46:20;3.28;;;0.98;;
16775;SDS011;8505;49.456;8.164;2023-08-08T12:48:48;1.92;;;0.90;;
16775;SDS011;8505;49.456;8.164;2023-08-08T12:51:15;3.07;;;1.00;;
16775;SDS011;8505;49.456;8.164;2023-08-08T12:53:43;2.35;;;1.00;;
16775;SDS011;8505;49.456;8.164;2023-08-08T12:56:11;3.60;;;1.08;;
16775;SDS011;8505;49.456;8.164;2023-08-08T12:58:39;2.45;;;1.10;;
16775;SDS011;8505;49.456;8.164;2023-08-08T13:01:07;1.98;;;1.10;;
16775;SDS011;8505;49.456;8.164;2023-08-08T13:04:04;2.58;;;1.10;;
16775;SDS011;8505;49.456;8.164;2023-08-08T13:06:35;2.70;;;1.02;;
16775;SDS011;8505;49.456;8.164;2023-08-08T13:09:03;2.97;;;1.10;;
16775;SDS011;8505;49.456;8.164;2023-08-08T13:11:34;2.72;;;1.10;;
16775;SDS011;8505;49.456;8.164;2023-08-08T13:14:02;3.45;;;1.10;;
16775;SDS011;8505;49.456;8.164;2023-08-08T13:16:30;3.22;;;0.90;;
16775;SDS011;8505;49.456;8.164;2023-08-08T13:18:57;2.60;;;1.10;;
16775;SDS011;8505;49.456;8.164;2023-08-08T13:21:27;2.80;;;0.90;;
16775;SDS011;8505;49.456;8.164;2023-08-08T13:23:56;3.57;;;0.90;;
16775;SDS011;8505;49.456;8.164;2023-08-08T13:26:24;1.73;;;1.00;;
16775;SDS011;8505;49.456;8.164;2023-08-08T13:28:52;3.50;;;1.10;;
16775;SDS011;8505;49.456;8.164;2023-08-08T13:31:20;2.17;;;0.90;;
16775;SDS011;8505;49.456;8.164;2023-08-08T13:33:47;2.30;;;0.88;;
16775;SDS011;8505;49.456;8.164;2023-08-08T13:36:15;2.55;;;0.98;;
16775;SDS011;8505;49.456;8.164;2023-08-08T13:38:44;3.42;;;1.10;;
16775;SDS011;8505;49.456;8.164;2023-08-08T13:41:12;2.50;;;0.87;;
16775;SDS011;8505;49.456;8.164;2023-08-08T13:43:39;3.25;;;1.30;;
16775;SDS011;8505;49.456;8.164;2023-08-08T13:46:07;4.25;;;1.20;;
16775;SDS011;8505;49.456;8.164;2023-08-08T13:48:36;2.73;;;1.00;;
16775;SDS011;8505;49.456;8.164;2023-08-08T13:51:04;2.10;;;1.10;;
16775;SDS011;8505;49.456;8.164;2023-08-08T13:53:31;2.92;;;0.90;;
16775;SDS011;8505;49.456;8.164;2023-08-08T13:56:01;2.15;;;1.00;;
16775;SDS011;8505;49.456;8.164;2023-08-08T13:58:29;2.25;;;0.90;;
16775;SDS011;8505;49.456;8.164;2023-08-08T14:00:58;5.72;;;1.05;;
16775;SDS011;8505;49.456;8.164;2023-08-08T14:03:27;3.10;;;1.08;;
16775;SDS011;8505;49.456;8.164;2023-08-08T14:05:55;3.10;;;0.93;;
16775;SDS011;8505;49.456;8.164;2023-08-08T14:08:24;2.15;;;1.00;;
16775;SDS011;8505;49.456;8.164;2023-08-08T14:10:51;4.40;;;1.20;;
16775;SDS011;8505;49.456;8.164;2023-08-08T14:13:20;2.08;;;1.00;;
16775;SDS011;8505;49.456;8.164;2023-08-08T14:15:48;2.92;;;1.00;;
16775;SDS011;8505;49.456;8.164;2023-08-08T14:18:18;3.45;;;1.02;;
16775;SDS011;8505;49.456;8.164;2023-08-08T14:20:46;3.33;;;1.50;;
16775;SDS011;8505;49.456;8.164;2023-08-08T14:23:14;3.70;;;1.30;;
16775;SDS011;8505;49.456;8.164;2023-08-08T14:25:41;2.40;;;1.20;;
16775;SDS011;8505;49.456;8.164;2023-08-08T14:28:09;1.87;;;1.00;;
16775;SDS011;8505;49.456;8.164;2023-08-08T14:30:38;1.55;;;0.90;;
16775;SDS011;8505;49.456;8.164;2023-08-08T14:33:06;2.65;;;1.05;;
16775;SDS011;8505;49.456;8.164;2023-08-08T14:35:34;2.88;;;1.20;;
16775;SDS011;8505;49.456;8.164;2023-08-08T14:38:02;2.25;;;1.10;;
16775;SDS011;8505;49.456;8.164;2023-08-08T14:40:30;3.58;;;1.52;;
16775;SDS011;8505;49.456;8.164;2023-08-08T14:43:00;2.47;;;1.08;;
16775;SDS011;8505;49.456;8.164;2023-08-08T14:45:28;2.38;;;1.00;;
16775;SDS011;8505;49.456;8.164;2023-08-08T14:47:58;4.05;;;1.05;;
16775;SDS011;8505;49.456;8.164;2023-08-08T14:50:25;2.80;;;1.20;;
16775;SDS011;8505;49.456;8.164;2023-08-08T14:52:53;1.95;;;1.00;;
16775;SDS011;8505;49.456;8.164;2023-08-08T14:55:21;3.08;;;1.00;;
16775;SDS011;8505;49.456;8.164;2023-08-08T14:57:48;3.33;;;1.10;;
16775;SDS011;8505;49.456;8.164;2023-08-08T15:00:16;2.53;;;1.00;;
16775;SDS011;8505;49.456;8.164;2023-08-08T15:02:44;3.00;;;1.20;;
16775;SDS011;8505;49.456;8.164;2023-08-08T15:05:13;4.70;;;1.20;;
16775;SDS011;8505;49.456;8.164;2023-08-08T15:07:41;2.58;;;1.20;;
16775;SDS011;8505;49.456;8.164;2023-08-08T15:10:09;2.83;;;1.10;;
16775;SDS011;8505;49.456;8.164;2023-08-08T15:12:37;3.13;;;1.13;;